Time;durP1;ratioP1;P1;durP2;ratioP2;P2;SDS_P1;SDS_P2;PMS_P1;PMS_P2;Temp;Humidity;BMP_temperature;BMP_pressure;BME280_temperature;BME280_humidity;BME280_pressure;Samples;Min_cycle;Max_cycle;Signal;HPM_P1;HPM_P2
2023/05/06 00:00:38;;;;;;;;;;;10.80;99.90;;;;;;5050995;28;19925;-77
2023/05/06 00:03:05;;;;;;;;;;;10.80;99.90;;;;;;5049983;28;19954;-77
2023/05/06 00:05:30;;;;;;;;;;;10.70;99.90;;;;;;5048371;28;20403;-77
2023/05/06 00:07:56;;;;;;;;;;;10.70;99.90;;;;;;5048676;28;19936;-77
2023/05/06 00:10:23;;;;;;;;;;;10.70;99.90;;;;;;5048681;28;20154;-77
2023/05/06 00:12:49;;;;;;;;;;;10.70;99.90;;;;;;5048796;28;19925;-77
2023/05/06 00:15:14;;;;;;;;;;;10.70;99.90;;;;;;5048946;28;20381;-77
2023/05/06 00:17:40;;;;;;;;;;;10.90;99.90;;;;;;5051968;28;19951;-77
2023/05/06 00:20:06;;;;;;;;;;;10.80;99.90;;;;;;5050170;28;19935;-77
2023/05/06 00:22:31;;;;;;;;;;;10.80;99.90;;;;;;5052613;28;20003;-77
2023/05/06 00:24:57;;;;;;;;;;;10.80;99.90;;;;;;5055665;28;19925;-77
2023/05/06 00:27:22;;;;;;;;;;;10.90;99.90;;;;;;5055601;28;19964;-77
2023/05/06 00:29:48;;;;;;;;;;;10.90;99.90;;;;;;5054490;28;20398;-76
2023/05/06 00:32:14;;;;;;;;;;;10.90;99.90;;;;;;5055644;28;20293;-76
2023/05/06 00:34:39;;;;;;;;;;;10.90;99.90;;;;;;5055217;28;20023;-77
2023/05/06 00:37:05;;;;;;;;;;;10.90;99.90;;;;;;5054071;28;19976;-77
2023/05/06 00:39:30;;;;;;;;;;;11.30;99.90;;;;;;5054786;28;20011;-77
2023/05/06 00:42:01;;;;;;;;;;;10.90;99.90;;;;;;5054768;28;20019;-77
2023/05/06 00:44:26;;;;;;;;;;;10.90;99.90;;;;;;5055751;28;19929;-77
2023/05/06 00:46:52;;;;;;;;;;;11.10;99.90;;;;;;5054490;28;19936;-76
2023/05/06 00:49:18;;;;;;;;;;;11.00;99.90;;;;;;5036124;28;19925;-75
2023/05/06 00:51:43;;;;;;;;;;;11.00;99.90;;;;;;5034241;28;20027;-75
2023/05/06 00:54:09;;;;;;;;;;;11.40;99.90;;;;;;5034750;28;19932;-75
2023/05/06 00:56:34;;;;;;;;;;;11.00;99.90;;;;;;5035603;28;19933;-76
2023/05/06 00:59:00;;;;;;;;;;;10.90;99.90;;;;;;5034194;28;19971;-76
2023/05/06 01:01:26;;;;;;;;;;;11.00;99.90;;;;;;5040486;28;20085;-75
2023/05/06 01:03:55;;;;;;;;;;;11.00;99.90;;;;;;5053707;28;20384;-77
2023/05/06 01:06:30;;;;;;;;;;;11.00;99.90;;;;;;5054163;28;19956;-77
2023/05/06 01:09:14;;;;;;;;;;;11.10;99.90;;;;;;5053184;28;19932;-77
2023/05/06 01:11:44;;;;;;;;;;;11.10;99.90;;;;;;5054281;28;19925;-77
2023/05/06 01:14:19;;;;;;;;;;;11.40;99.90;;;;;;5053492;28;20415;-77
2023/05/06 01:16:46;;;;;;;;;;;11.10;99.90;;;;;;5053325;28;20359;-77
2023/05/06 01:19:15;;;;;;;;;;;11.10;99.90;;;;;;5054919;28;19979;-77
2023/05/06 01:21:40;;;;;;;;;;;11.20;99.90;;;;;;5053697;28;19925;-77
2023/05/06 01:24:06;;;;;;;;;;;11.30;99.90;;;;;;5053736;28;20382;-77
2023/05/06 01:26:31;;;;;;;;;;;11.20;99.90;;;;;;5055033;28;19928;-77
2023/05/06 01:28:57;;;;;;;;;;;11.20;99.90;;;;;;5053576;28;19931;-77
2023/05/06 01:31:28;;;;;;;;;;;11.10;99.90;;;;;;5052673;28;19929;-77
2023/05/06 01:34:13;;;;;;;;;;;11.10;99.90;;;;;;5053292;28;20019;-77
2023/05/06 01:36:48;;;;;;;;;;;11.10;99.90;;;;;;5052250;28;19924;-77
2023/05/06 01:39:19;;;;;;;;;;;11.10;99.90;;;;;;5053062;28;19960;-77
2023/05/06 01:41:47;;;;;;;;;;;11.10;99.90;;;;;;5054859;28;20002;-77
2023/05/06 01:44:13;;;;;;;;;;;11.10;99.90;;;;;;5052540;28;20293;-77
2023/05/06 01:46:39;;;;;;;;;;;11.00;99.90;;;;;;5054881;28;20015;-77
2023/05/06 01:49:09;;;;;;;;;;;10.90;99.90;;;;;;5053010;28;20399;-76
2023/05/06 01:51:34;;;;;;;;;;;10.90;99.90;;;;;;5052716;28;19925;-77
2023/05/06 01:54:00;;;;;;;;;;;10.90;99.90;;;;;;5052874;28;20331;-76
2023/05/06 01:56:29;;;;;;;;;;;10.80;99.90;;;;;;5052972;28;20489;-77
2023/05/06 01:58:55;;;;;;;;;;;10.80;99.90;;;;;;5051847;28;19972;-77
2023/05/06 02:01:21;;;;;;;;;;;11.70;99.90;;;;;;5043723;28;20410;-77
2023/05/06 02:03:46;;;;;;;;;;;10.60;99.90;;;;;;5032845;28;19929;-75
2023/05/06 02:06:12;;;;;;;;;;;10.60;99.90;;;;;;5032074;28;20020;-77
2023/05/06 02:08:37;;;;;;;;;;;10.60;99.90;;;;;;5032971;28;20285;-75
2023/05/06 02:11:03;;;;;;;;;;;10.60;99.90;;;;;;5032847;28;19932;-76
2023/05/06 02:13:28;;;;;;;;;;;10.50;99.90;;;;;;5032201;28;20029;-76
2023/05/06 02:15:54;;;;;;;;;;;10.50;99.90;;;;;;5033891;28;20280;-76
2023/05/06 02:18:20;;;;;;;;;;;10.50;99.90;;;;;;5032083;28;19925;-76
2023/05/06 02:20:46;;;;;;;;;;;10.40;99.90;;;;;;5034219;28;20057;-76
2023/05/06 02:23:12;;;;;;;;;;;10.40;99.90;;;;;;5032652;28;20292;-76
2023/05/06 02:25:37;;;;;;;;;;;10.40;99.90;;;;;;5031983;28;19925;-77
2023/05/06 02:28:03;;;;;;;;;;;10.40;99.90;;;;;;5033787;28;19921;-77
2023/05/06 02:30:31;;;;;;;;;;;10.50;99.90;;;;;;5032418;28;19928;-76
2023/05/06 02:32:57;;;;;;;;;;;10.50;99.90;;;;;;5031429;28;19929;-76
2023/05/06 02:35:23;;;;;;;;;;;10.50;99.90;;;;;;5033482;28;19932;-77
2023/05/06 02:37:48;;;;;;;;;;;10.50;99.90;;;;;;5033587;28;19925;-77
2023/05/06 02:40:14;;;;;;;;;;;10.60;99.90;;;;;;5031318;28;20435;-76
2023/05/06 02:42:39;;;;;;;;;;;10.50;99.90;;;;;;5033695;28;19932;-76
2023/05/06 02:45:05;;;;;;;;;;;10.60;99.90;;;;;;5032180;28;19932;-76
2023/05/06 02:47:30;;;;;;;;;;;10.60;99.90;;;;;;5032767;28;19928;-77
2023/05/06 02:49:56;;;;;;;;;;;10.60;99.90;;;;;;5032151;28;19936;-76
2023/05/06 02:52:21;;;;;;;;;;;10.60;99.90;;;;;;5031566;28;19933;-76
2023/05/06 02:54:47;;;;;;;;;;;10.60;99.90;;;;;;5031447;28;19988;-76
2023/05/06 02:57:12;;;;;;;;;;;10.60;99.90;;;;;;5031815;28;19970;-76
2023/05/06 02:59:38;;;;;;;;;;;10.60;99.90;;;;;;5033505;28;20265;-77
2023/05/06 03:02:03;;;;;;;;;;;10.60;99.90;;;;;;5030438;28;19925;-77
2023/05/06 03:04:29;;;;;;;;;;;11.10;99.90;;;;;;5033527;28;19925;-77
2023/05/06 03:06:55;;;;;;;;;;;11.30;99.90;;;;;;5031461;28;20350;-77
2023/05/06 03:09:20;;;;;;;;;;;10.60;99.90;;;;;;5031241;28;19925;-76
2023/05/06 03:11:46;;;;;;;;;;;10.90;99.90;;;;;;5031695;28;20301;-76
2023/05/06 03:14:11;;;;;;;;;;;10.70;99.90;;;;;;5032926;28;20308;-77
2023/05/06 03:16:37;;;;;;;;;;;10.70;99.90;;;;;;5032682;28;19925;-77
2023/05/06 03:19:02;;;;;;;;;;;10.60;99.90;;;;;;5032451;28;19925;-77
2023/05/06 03:21:28;;;;;;;;;;;10.60;99.90;;;;;;5032830;28;19977;-76
2023/05/06 03:23:54;;;;;;;;;;;10.80;99.90;;;;;;5031039;28;19925;-76
2023/05/06 03:26:20;;;;;;;;;;;10.80;99.90;;;;;;5031904;28;20027;-76
2023/05/06 03:28:45;;;;;;;;;;;10.80;99.90;;;;;;5031960;28;20444;-77
2023/05/06 03:31:11;;;;;;;;;;;10.80;99.90;;;;;;5031478;28;19925;-77
2023/05/06 03:33:37;;;;;;;;;;;11.20;99.90;;;;;;5031754;28;20055;-77
2023/05/06 03:36:02;;;;;;;;;;;11.30;99.90;;;;;;5031866;28;19925;-77
2023/05/06 03:38:28;;;;;;;;;;;10.90;99.90;;;;;;5033041;28;19925;-77
2023/05/06 03:40:53;;;;;;;;;;;10.90;99.90;;;;;;5031360;28;20064;-77
2023/05/06 03:43:19;;;;;;;;;;;10.90;99.90;;;;;;5031086;28;19925;-76
2023/05/06 03:45:44;;;;;;;;;;;10.90;99.90;;;;;;5032889;28;19929;-76
2023/05/06 03:48:10;;;;;;;;;;;10.80;99.90;;;;;;5032278;28;20470;-76
2023/05/06 03:50:36;;;;;;;;;;;10.80;99.90;;;;;;5031934;28;20097;-77
2023/05/06 03:53:01;;;;;;;;;;;10.90;99.90;;;;;;5032625;28;19928;-77
2023/05/06 03:55:27;;;;;;;;;;;11.10;99.90;;;;;;5034959;28;19925;-77
2023/05/06 03:57:52;;;;;;;;;;;11.10;99.90;;;;;;5050706;28;19978;-77
2023/05/06 04:00:18;;;;;;;;;;;11.10;99.90;;;;;;5056559;28;19971;-77
2023/05/06 04:02:43;;;;;;;;;;;11.00;99.90;;;;;;5054908;28;20300;-77
2023/05/06 04:05:09;;;;;;;;;;;10.90;99.90;;;;;;5055070;28;19929;-77
2023/05/06 04:07:34;;;;;;;;;;;10.90;99.90;;;;;;5056379;28;20016;-77
2023/05/06 04:10:00;;;;;;;;;;;11.00;99.90;;;;;;5055064;28;19924;-77
2023/05/06 04:12:26;;;;;;;;;;;11.00;99.90;;;;;;5054528;28;19947;-77
2023/05/06 04:14:51;;;;;;;;;;;11.00;99.90;;;;;;5055780;28;19929;-76
2023/05/06 04:17:17;;;;;;;;;;;11.10;99.90;;;;;;5037027;28;20432;-76
2023/05/06 04:19:43;;;;;;;;;;;11.10;99.90;;;;;;5034350;28;19925;-76
2023/05/06 04:22:08;;;;;;;;;;;11.00;99.90;;;;;;5034717;28;19925;-77
2023/05/06 04:24:34;;;;;;;;;;;11.10;99.90;;;;;;5035004;28;19924;-74
2023/05/06 04:26:59;;;;;;;;;;;10.90;99.90;;;;;;5033671;28;19933;-75
2023/05/06 04:29:25;;;;;;;;;;;10.90;99.90;;;;;;5035884;28;19925;-76
2023/05/06 04:31:52;;;;;;;;;;;11.00;99.90;;;;;;5035032;28;19932;-75
2023/05/06 04:34:18;;;;;;;;;;;10.90;99.90;;;;;;5035047;28;20408;-75
2023/05/06 04:36:44;;;;;;;;;;;10.90;99.90;;;;;;5033849;28;19925;-75
2023/05/06 04:39:10;;;;;;;;;;;10.80;99.90;;;;;;5034721;28;19925;-75
2023/05/06 04:41:36;;;;;;;;;;;10.80;99.90;;;;;;5035771;28;19931;-75
2023/05/06 04:44:02;;;;;;;;;;;11.30;99.90;;;;;;5035087;28;19986;-75
2023/05/06 04:46:28;;;;;;;;;;;10.70;99.90;;;;;;5033952;28;19972;-76
2023/05/06 04:48:53;;;;;;;;;;;10.80;99.90;;;;;;5035368;28;19925;-74
2023/05/06 04:51:19;;;;;;;;;;;10.70;99.90;;;;;;5035737;28;19975;-74
2023/05/06 04:53:45;;;;;;;;;;;10.70;99.90;;;;;;5034844;28;20447;-75
2023/05/06 04:56:11;;;;;;;;;;;10.70;99.90;;;;;;5035315;28;19984;-75
2023/05/06 04:58:36;;;;;;;;;;;10.70;99.90;;;;;;5033674;28;19961;-75
2023/05/06 05:01:03;;;;;;;;;;;10.70;99.90;;;;;;5033381;28;19925;-74
2023/05/06 05:03:29;;;;;;;;;;;11.00;99.90;;;;;;5035305;28;19926;-75
2023/05/06 05:05:54;;;;;;;;;;;10.80;99.90;;;;;;5033862;28;20016;-75
2023/05/06 05:08:20;;;;;;;;;;;10.90;99.90;;;;;;5033129;28;19925;-75
2023/05/06 05:10:46;;;;;;;;;;;11.20;99.90;;;;;;5033000;28;19925;-74
2023/05/06 05:13:12;;;;;;;;;;;11.50;99.90;;;;;;5046742;28;20434;-75
2023/05/06 05:15:38;;;;;;;;;;;11.20;99.90;;;;;;5053021;28;19974;-75
2023/05/06 05:18:03;;;;;;;;;;;11.40;99.90;;;;;;5054693;28;19978;-76
2023/05/06 05:20:29;;;;;;;;;;;11.50;99.90;;;;;;5055294;28;20335;-76
2023/05/06 05:22:55;;;;;;;;;;;11.60;99.90;;;;;;5052923;28;19936;-77
2023/05/06 05:25:20;;;;;;;;;;;11.60;99.90;;;;;;5053495;28;20031;-76
2023/05/06 05:27:46;;;;;;;;;;;11.70;99.90;;;;;;5053763;28;19948;-77
2023/05/06 05:30:12;;;;;;;;;;;11.80;99.90;;;;;;5052954;28;20408;-75
2023/05/06 05:32:37;;;;;;;;;;;11.80;99.90;;;;;;5053366;28;20013;-75
2023/05/06 05:35:03;;;;;;;;;;;11.80;99.90;;;;;;5053015;28;20038;-77
2023/05/06 05:37:30;;;;;;;;;;;11.80;99.90;;;;;;5052735;28;19924;-76
2023/05/06 05:39:55;;;;;;;;;;;11.80;99.90;;;;;;5053285;28;20022;-75
2023/05/06 05:42:21;;;;;;;;;;;11.90;99.90;;;;;;5052738;28;19925;-75
2023/05/06 05:44:46;;;;;;;;;;;11.90;99.90;;;;;;5052957;28;20023;-75
2023/05/06 05:47:12;;;;;;;;;;;12.50;99.90;;;;;;5053310;28;19921;-75
2023/05/06 05:49:37;;;;;;;;;;;12.10;99.90;;;;;;5053841;28;20527;-75
2023/05/06 05:52:03;;;;;;;;;;;12.00;99.90;;;;;;5052817;28;19980;-75
2023/05/06 05:54:29;;;;;;;;;;;11.90;99.90;;;;;;5052918;28;19921;-75
2023/05/06 05:56:54;;;;;;;;;;;11.80;99.90;;;;;;5053239;28;19964;-75
2023/05/06 05:59:20;;;;;;;;;;;11.90;99.90;;;;;;5053263;28;19921;-75
2023/05/06 06:01:45;;;;;;;;;;;11.90;99.90;;;;;;5052906;28;19932;-75
2023/05/06 06:04:11;;;;;;;;;;;11.90;99.90;;;;;;5051063;28;19987;-76
2023/05/06 06:06:36;;;;;;;;;;;11.90;99.90;;;;;;5054098;28;19936;-76
2023/05/06 06:09:02;;;;;;;;;;;11.90;99.90;;;;;;5053733;28;19951;-75
2023/05/06 06:11:27;;;;;;;;;;;12.00;99.90;;;;;;5053091;28;19924;-75
2023/05/06 06:13:53;;;;;;;;;;;12.00;99.90;;;;;;5052440;28;19924;-76
2023/05/06 06:16:18;;;;;;;;;;;12.00;99.90;;;;;;5052528;28;19925;-76
2023/05/06 06:18:44;;;;;;;;;;;12.10;99.90;;;;;;5051620;28;20019;-76
2023/05/06 06:21:10;;;;;;;;;;;12.20;99.90;;;;;;5052394;28;20483;-76
2023/05/06 06:23:35;;;;;;;;;;;12.30;99.90;;;;;;5053190;28;19947;-76
2023/05/06 06:26:01;;;;;;;;;;;12.50;99.90;;;;;;5051296;28;20304;-76
2023/05/06 06:28:27;;;;;;;;;;;12.60;99.90;;;;;;5053487;28;20023;-76
2023/05/06 06:30:52;;;;;;;;;;;12.70;99.90;;;;;;5052383;28;19971;-76
2023/05/06 06:33:18;;;;;;;;;;;13.00;99.90;;;;;;5052793;28;20018;-77
2023/05/06 06:35:43;;;;;;;;;;;12.90;99.90;;;;;;5049725;28;19931;-76
2023/05/06 06:38:09;;;;;;;;;;;13.00;99.90;;;;;;5052449;28;20381;-78
2023/05/06 06:40:34;;;;;;;;;;;13.20;99.90;;;;;;5050753;28;20007;-74
2023/05/06 06:43:00;;;;;;;;;;;13.30;99.90;;;;;;5052773;28;19925;-73
2023/05/06 06:45:26;;;;;;;;;;;13.40;99.90;;;;;;5052335;28;19967;-73
2023/05/06 06:47:51;;;;;;;;;;;12.50;99.90;;;;;;5051196;28;19929;-72
2023/05/06 06:50:17;;;;;;;;;;;14.50;99.90;;;;;;5053000;28;19929;-74
2023/05/06 06:52:42;;;;;;;;;;;13.80;99.90;;;;;;5051469;28;19940;-75
2023/05/06 06:55:08;;;;;;;;;;;13.80;99.90;;;;;;5051319;28;20023;-75
2023/05/06 06:57:35;;;;;;;;;;;14.00;99.90;;;;;;5052006;28;19932;-75
2023/05/06 07:00:00;;;;;;;;;;;14.00;99.90;;;;;;5050910;28;20392;-73
2023/05/06 07:02:26;;;;;;;;;;;14.10;99.90;;;;;;5051422;28;19954;-74
2023/05/06 07:04:52;;;;;;;;;;;14.10;99.90;;;;;;5051319;28;19928;-75
2023/05/06 07:07:18;;;;;;;;;;;14.20;99.90;;;;;;5052401;28;19925;-75
2023/05/06 07:09:43;;;;;;;;;;;14.50;99.90;;;;;;5051835;28;19932;-76
2023/05/06 07:12:09;;;;;;;;;;;14.40;99.90;;;;;;5051687;28;19924;-76
2023/05/06 07:14:34;;;;;;;;;;;14.60;99.90;;;;;;5052171;28;19925;-75
2023/05/06 07:17:00;;;;;;;;;;;14.60;99.90;;;;;;5051009;28;19925;-75
2023/05/06 07:19:26;;;;;;;;;;;14.70;99.90;;;;;;5052866;28;19925;-75
2023/05/06 07:21:51;;;;;;;;;;;14.80;99.90;;;;;;5050568;28;19925;-75
2023/05/06 07:24:17;;;;;;;;;;;14.90;99.90;;;;;;5051303;28;19972;-75
2023/05/06 07:26:42;;;;;;;;;;;15.00;99.90;;;;;;5043986;28;19974;-75
2023/05/06 07:29:08;;;;;;;;;;;15.20;99.90;;;;;;5030595;28;19925;-75
2023/05/06 07:31:33;;;;;;;;;;;15.90;99.90;;;;;;5032357;28;19925;-76
2023/05/06 07:33:59;;;;;;;;;;;16.50;99.90;;;;;;5030359;28;19951;-74
2023/05/06 07:36:25;;;;;;;;;;;17.20;99.90;;;;;;5039818;28;19925;-74
2023/05/06 07:38:51;;;;;;;;;;;18.00;99.90;;;;;;5051562;28;19925;-75
2023/05/06 07:41:20;;;;;;;;;;;18.60;99.90;;;;;;5050150;28;19982;-75
2023/05/06 07:43:45;;;;;;;;;;;19.30;99.90;;;;;;5051073;28;19921;-75
2023/05/06 07:46:11;;;;;;;;;;;19.70;99.90;;;;;;5050733;28;19925;-75
2023/05/06 07:48:37;;;;;;;;;;;20.10;99.90;;;;;;5050590;28;19925;-76
2023/05/06 07:51:02;;;;;;;;;;;20.20;99.90;;;;;;5050256;28;19928;-75
2023/05/06 07:53:28;;;;;;;;;;;20.70;99.90;;;;;;5050691;28;19925;-78
2023/05/06 07:55:57;;;;;;;;;;;21.30;99.90;;;;;;5041605;28;19970;-79
2023/05/06 07:58:22;;;;;;;;;;;21.70;99.90;;;;;;5050500;28;20015;-79
2023/05/06 08:00:48;;;;;;;;;;;22.00;99.90;;;;;;5040500;28;20044;-77
2023/05/06 08:03:15;;;;;;;;;;;22.20;99.90;;;;;;5030020;28;20389;-76
2023/05/06 08:05:40;;;;;;;;;;;22.40;99.90;;;;;;5032418;28;19932;-77
2023/05/06 08:08:06;;;;;;;;;;;22.60;99.90;;;;;;5030823;28;19929;-77
2023/05/06 08:10:32;;;;;;;;;;;22.60;99.90;;;;;;5031881;28;19982;-76
2023/05/06 08:12:57;;;;;;;;;;;23.00;99.90;;;;;;5032085;28;20016;-76
2023/05/06 08:15:23;;;;;;;;;;;23.30;99.90;;;;;;5031908;28;19929;-75
2023/05/06 08:17:48;;;;;;;;;;;23.40;99.90;;;;;;5035271;28;20384;-77
2023/05/06 08:20:14;;;;;;;;;;;23.80;98.70;;;;;;5050380;28;19932;-77
2023/05/06 08:22:39;;;;;;;;;;;24.10;98.40;;;;;;5046157;28;20016;-74
2023/05/06 08:25:05;;;;;;;;;;;24.10;99.10;;;;;;5046730;28;19925;-75
2023/05/06 08:27:31;;;;;;;;;;;24.10;98.90;;;;;;5050416;28;19921;-79
2023/05/06 08:29:56;;;;;;;;;;;24.10;99.30;;;;;;5048953;28;20051;-79
2023/05/06 08:32:22;;;;;;;;;;;24.30;99.20;;;;;;5042054;28;20011;-78
2023/05/06 08:34:47;;;;;;;;;;;24.50;97.60;;;;;;5048824;28;20003;-76
2023/05/06 08:37:13;;;;;;;;;;;24.70;97.80;;;;;;5041694;28;19965;-79
2023/05/06 08:39:38;;;;;;;;;;;24.90;96.70;;;;;;5037160;28;20456;-80
2023/05/06 08:42:04;;;;;;;;;;;24.70;97.60;;;;;;5031837;28;19925;-73
2023/05/06 08:44:30;;;;;;;;;;;24.70;96.70;;;;;;5047596;28;20445;-79
2023/05/06 08:46:56;;;;;;;;;;;24.60;95.90;;;;;;5054504;28;19921;-78
2023/05/06 08:49:22;;;;;;;;;;;24.40;96.50;;;;;;5055647;28;20387;-75
2023/05/06 08:51:49;;;;;;;;;;;24.30;96.90;;;;;;5055445;28;20420;-77
2023/05/06 08:54:15;;;;;;;;;;;24.50;97.50;;;;;;5053361;28;19921;-80
2023/05/06 08:56:43;;;;;;;;;;;24.60;97.00;;;;;;5055297;28;19931;-78
2023/05/06 08:59:09;;;;;;;;;;;24.60;96.00;;;;;;5053596;28;20385;-79
2023/05/06 09:01:35;;;;;;;;;;;24.70;96.20;;;;;;5052212;28;19932;-75
2023/05/06 09:04:02;;;;;;;;;;;25.10;96.10;;;;;;5054654;28;19936;-77
2023/05/06 09:06:28;;;;;;;;;;;25.60;95.60;;;;;;5051917;28;20372;-75
2023/05/06 09:08:53;;;;;;;;;;;25.70;95.80;;;;;;5053185;28;19924;-77
2023/05/06 09:11:23;;;;;;;;;;;25.80;96.10;;;;;;5054646;28;19995;-75
2023/05/06 09:13:49;;;;;;;;;;;25.90;95.10;;;;;;5052809;28;20581;-75
2023/05/06 09:16:28;;;;;;;;;;;25.90;95.80;;;;;;5052739;28;19932;-77
2023/05/06 09:18:53;;;;;;;;;;;26.60;94.70;;;;;;5053122;28;19959;-75
2023/05/06 09:21:19;;;;;;;;;;;26.70;94.40;;;;;;5052816;28;19928;-75
2023/05/06 09:23:45;;;;;;;;;;;26.40;94.80;;;;;;5033938;28;19927;-75
2023/05/06 09:26:11;;;;;;;;;;;26.60;94.10;;;;;;5033147;28;20278;-76
2023/05/06 09:28:36;;;;;;;;;;;26.50;93.70;;;;;;5034025;28;19936;-74
2023/05/06 09:31:02;;;;;;;;;;;26.10;94.10;;;;;;5052991;28;19999;-74
2023/05/06 09:33:27;;;;;;;;;;;26.00;94.70;;;;;;5052653;28;20438;-74
2023/05/06 09:35:53;;;;;;;;;;;26.20;94.80;;;;;;5052189;28;19951;-74
2023/05/06 09:38:19;;;;;;;;;;;26.40;94.00;;;;;;5052843;28;19951;-74
2023/05/06 09:40:45;;;;;;;;;;;26.40;94.10;;;;;;5053115;28;19925;-74
2023/05/06 09:43:11;;;;;;;;;;;26.20;94.30;;;;;;5052163;28;20007;-74
2023/05/06 09:45:37;;;;;;;;;;;25.90;94.90;;;;;;5052801;28;19936;-74
2023/05/06 09:48:03;;;;;;;;;;;26.40;94.90;;;;;;5050627;28;19925;-74
2023/05/06 09:50:29;;;;;;;;;;;26.70;95.80;;;;;;5050345;28;20292;-74
2023/05/06 09:52:55;;;;;;;;;;;27.00;93.80;;;;;;5050845;28;19924;-74
2023/05/06 09:55:21;;;;;;;;;;;26.60;94.10;;;;;;5050858;28;20386;-74
2023/05/06 09:57:47;;;;;;;;;;;26.20;94.30;;;;;;5050105;28;19925;-74
2023/05/06 10:00:13;;;;;;;;;;;25.80;94.70;;;;;;5052371;28;19936;-74
2023/05/06 10:02:39;;;;;;;;;;;25.50;96.10;;;;;;5052961;28;19948;-74
2023/05/06 10:05:05;;;;;;;;;;;25.90;95.50;;;;;;5053877;28;19970;-74
2023/05/06 10:07:30;;;;;;;;;;;26.00;94.60;;;;;;5054249;28;19929;-74
2023/05/06 10:09:57;;;;;;;;;;;26.00;95.40;;;;;;5052396;28;19931;-74
2023/05/06 10:12:24;;;;;;;;;;;26.00;95.20;;;;;;5052778;28;19932;-74
2023/05/06 10:14:49;;;;;;;;;;;26.10;94.20;;;;;;5053922;28;19921;-75
2023/05/06 10:17:16;;;;;;;;;;;26.60;93.60;;;;;;5052759;28;19931;-74
2023/05/06 10:19:43;;;;;;;;;;;26.60;94.00;;;;;;5052254;28;19931;-74
2023/05/06 10:22:14;;;;;;;;;;;26.60;95.40;;;;;;5052916;28;19951;-74
2023/05/06 10:24:59;;;;;;;;;;;26.80;94.00;;;;;;5051657;28;19925;-75
2023/05/06 10:27:26;;;;;;;;;;;26.90;94.50;;;;;;5041929;28;20319;-74
2023/05/06 10:29:57;;;;;;;;;;;27.10;92.60;;;;;;5053029;28;19924;-74
2023/05/06 10:32:25;;;;;;;;;;;26.80;93.60;;;;;;5051661;28;19932;-75
2023/05/06 10:34:55;;;;;;;;;;;27.10;93.60;;;;;;5053231;28;20369;-75
2023/05/06 10:37:25;;;;;;;;;;;27.10;92.90;;;;;;5053635;28;19931;-75
2023/05/06 10:39:55;;;;;;;;;;;27.20;92.80;;;;;;5050869;28;20399;-75
2023/05/06 10:42:29;;;;;;;;;;;26.90;96.10;;;;;;5052451;28;20023;-75
2023/05/06 10:44:55;;;;;;;;;;;26.70;94.30;;;;;;5052894;28;19925;-74
2023/05/06 10:47:21;;;;;;;;;;;26.80;93.70;;;;;;5053257;28;19932;-75
2023/05/06 10:50:06;;;;;;;;;;;26.70;93.90;;;;;;5053554;28;19932;-75
2023/05/06 10:52:45;;;;;;;;;;;26.40;94.50;;;;;;5050818;28;19931;-75
2023/05/06 10:55:23;;;;;;;;;;;25.60;93.70;;;;;;5051542;28;19928;-75
2023/05/06 10:57:52;;;;;;;;;;;24.90;95.70;;;;;;5051535;28;19925;-74
2023/05/06 11:00:18;;;;;;;;;;;24.70;94.90;;;;;;5051750;28;19925;-74
2023/05/06 11:02:43;;;;;;;;;;;24.60;95.20;;;;;;5051174;28;19925;-75
2023/05/06 11:05:09;;;;;;;;;;;24.20;95.40;;;;;;5051845;28;19932;-75
2023/05/06 11:07:35;;;;;;;;;;;23.40;97.10;;;;;;5051170;28;19932;-75
2023/05/06 11:10:05;;;;;;;;;;;22.90;95.40;;;;;;5051731;28;19921;-75
2023/05/06 11:12:47;;;;;;;;;;;22.80;95.60;;;;;;5051550;28;19928;-75
2023/05/06 11:15:31;;;;;;;;;;;22.60;95.20;;;;;;5051440;28;19924;-75
2023/05/06 11:17:57;;;;;;;;;;;22.20;97.60;;;;;;5042762;28;19936;-75
2023/05/06 11:20:24;;;;;;;;;;;22.10;97.60;;;;;;5051958;28;19925;-75
2023/05/06 11:22:50;;;;;;;;;;;22.10;96.80;;;;;;5053063;28;19924;-75
2023/05/06 11:25:39;;;;;;;;;;;21.90;97.50;;;;;;5051611;28;19925;-75
2023/05/06 11:28:06;;;;;;;;;;;21.80;98.00;;;;;;5026495;28;20016;-75
2023/05/06 11:30:31;;;;;;;;;;;21.60;99.40;;;;;;5032749;28;19987;-75
2023/05/06 11:33:00;;;;;;;;;;;21.40;99.40;;;;;;5041748;28;19972;-75
2023/05/06 11:35:32;;;;;;;;;;;21.40;99.90;;;;;;5050726;28;20019;-75
2023/05/06 11:37:58;;;;;;;;;;;21.10;99.90;;;;;;5052287;28;20400;-75
2023/05/06 11:40:27;;;;;;;;;;;20.70;99.90;;;;;;5051355;28;19955;-75
2023/05/06 11:42:53;;;;;;;;;;;20.30;99.90;;;;;;5051158;28;19929;-75
2023/05/06 11:45:18;;;;;;;;;;;20.10;99.90;;;;;;5051244;28;20392;-75
2023/05/06 11:47:44;;;;;;;;;;;19.70;99.90;;;;;;5051340;28;19920;-75
2023/05/06 11:50:10;;;;;;;;;;;19.50;99.90;;;;;;5050005;28;20817;-75
2023/05/06 11:52:35;;;;;;;;;;;19.20;99.90;;;;;;5050923;28;19964;-75
2023/05/06 11:55:01;;;;;;;;;;;19.20;99.90;;;;;;5050319;28;19925;-75
2023/05/06 11:57:26;;;;;;;;;;;19.00;99.90;;;;;;5050767;28;19928;-74
2023/05/06 11:59:52;;;;;;;;;;;19.00;99.90;;;;;;5051082;28;19925;-74
2023/05/06 12:02:19;;;;;;;;;;;18.80;99.90;;;;;;5051472;28;19928;-75
2023/05/06 12:04:45;;;;;;;;;;;18.80;99.90;;;;;;5051417;28;19925;-75
2023/05/06 12:07:12;;;;;;;;;;;18.90;99.90;;;;;;5050502;28;20011;-74
2023/05/06 12:09:39;;;;;;;;;;;19.00;99.90;;;;;;5050421;28;19929;-75
2023/05/06 12:12:05;;;;;;;;;;;19.20;99.90;;;;;;5050846;28;19964;-74
2023/05/06 12:14:31;;;;;;;;;;;19.30;99.90;;;;;;5052407;28;19928;-74
2023/05/06 12:16:57;;;;;;;;;;;19.40;99.90;;;;;;5049827;28;20007;-75
2023/05/06 12:19:23;;;;;;;;;;;19.90;99.90;;;;;;5052652;28;19977;-75
2023/05/06 12:21:48;;;;;;;;;;;20.10;99.90;;;;;;5055899;28;19924;-75
2023/05/06 12:24:14;;;;;;;;;;;20.40;99.90;;;;;;5054804;28;19925;-75
2023/05/06 12:26:43;;;;;;;;;;;20.80;99.90;;;;;;5056415;28;19931;-75
2023/05/06 12:29:09;;;;;;;;;;;21.10;99.90;;;;;;5054399;28;19925;-75
2023/05/06 12:31:35;;;;;;;;;;;21.30;99.90;;;;;;5053288;28;19925;-75
2023/05/06 12:34:01;;;;;;;;;;;21.40;99.90;;;;;;5054122;28;19932;-75
2023/05/06 12:36:26;;;;;;;;;;;21.50;99.90;;;;;;5054581;28;20335;-75
2023/05/06 12:38:53;;;;;;;;;;;21.30;99.90;;;;;;5053916;28;19929;-75
2023/05/06 12:41:20;;;;;;;;;;;21.40;99.90;;;;;;5053564;28;19931;-75
2023/05/06 12:43:45;;;;;;;;;;;21.60;99.90;;;;;;5055711;28;19925;-74
2023/05/06 12:46:11;;;;;;;;;;;21.80;99.90;;;;;;5053513;28;19931;-75
2023/05/06 12:48:37;;;;;;;;;;;22.10;99.90;;;;;;5055601;28;20450;-75
2023/05/06 12:51:16;;;;;;;;;;;22.20;99.90;;;;;;5053187;28;19925;-75
2023/05/06 12:53:41;;;;;;;;;;;22.40;99.90;;;;;;5054054;28;19978;-75
2023/05/06 12:56:07;;;;;;;;;;;22.40;99.90;;;;;;5053513;28;19929;-74
2023/05/06 12:58:36;;;;;;;;;;;22.30;99.90;;;;;;5052683;28;19932;-74
2023/05/06 13:01:02;;;;;;;;;;;22.30;99.90;;;;;;5053779;28;19970;-75
2023/05/06 13:03:27;;;;;;;;;;;22.10;99.90;;;;;;5054012;28;20022;-74
2023/05/06 13:05:53;;;;;;;;;;;22.00;99.90;;;;;;5054280;28;19925;-75
2023/05/06 13:08:18;;;;;;;;;;;21.90;99.90;;;;;;5055338;28;20432;-75
2023/05/06 13:10:44;;;;;;;;;;;21.90;99.90;;;;;;5055215;28;19925;-74
2023/05/06 13:13:10;;;;;;;;;;;21.80;99.90;;;;;;5053860;28;19924;-74
2023/05/06 13:15:35;;;;;;;;;;;21.60;99.90;;;;;;5053802;28;19932;-74
2023/05/06 13:18:01;;;;;;;;;;;21.60;99.90;;;;;;5054982;28;19929;-74
2023/05/06 13:20:26;;;;;;;;;;;21.40;99.90;;;;;;5054247;28;20387;-74
2023/05/06 13:22:52;;;;;;;;;;;21.30;99.90;;;;;;5053212;28;19936;-74
2023/05/06 13:25:17;;;;;;;;;;;21.20;99.90;;;;;;5054765;28;19929;-74
2023/05/06 13:27:43;;;;;;;;;;;21.10;99.90;;;;;;5054062;28;19921;-74
2023/05/06 13:30:08;;;;;;;;;;;21.00;99.90;;;;;;5054252;28;19932;-74
2023/05/06 13:32:34;;;;;;;;;;;20.80;99.90;;;;;;5052978;28;19925;-74
2023/05/06 13:34:59;;;;;;;;;;;20.70;99.90;;;;;;5052696;28;19977;-74
2023/05/06 13:37:25;;;;;;;;;;;20.50;99.90;;;;;;5054286;28;20398;-74
2023/05/06 13:39:50;;;;;;;;;;;20.50;99.90;;;;;;5053136;28;19920;-74
2023/05/06 13:42:16;;;;;;;;;;;20.40;99.90;;;;;;5053609;28;19931;-74
2023/05/06 13:44:42;;;;;;;;;;;20.40;99.90;;;;;;5053104;28;20265;-75
2023/05/06 13:47:07;;;;;;;;;;;20.40;99.90;;;;;;5054471;28;19924;-74
2023/05/06 13:49:33;;;;;;;;;;;20.60;99.90;;;;;;5053741;28;19968;-75
2023/05/06 13:51:58;;;;;;;;;;;20.90;99.90;;;;;;5052915;28;19932;-74
2023/05/06 13:54:24;;;;;;;;;;;21.40;99.90;;;;;;5052112;28;20436;-75
2023/05/06 13:56:49;;;;;;;;;;;21.50;99.90;;;;;;5051321;28;19925;-74
2023/05/06 13:59:15;;;;;;;;;;;21.50;99.90;;;;;;5052889;28;19925;-74
2023/05/06 14:01:41;;;;;;;;;;;21.50;99.90;;;;;;5051978;28;19925;-75
2023/05/06 14:04:06;;;;;;;;;;;21.30;99.90;;;;;;5052952;28;19924;-74
2023/05/06 14:06:32;;;;;;;;;;;21.20;99.90;;;;;;5045820;28;19928;-74
2023/05/06 14:08:58;;;;;;;;;;;21.20;99.90;;;;;;5052702;28;19936;-74
2023/05/06 14:11:23;;;;;;;;;;;21.30;99.90;;;;;;5037227;28;19925;-74